sensor_id;sensor_type;location;lat;lon;timestamp;temperature;humidity
76470;DHT22;65305;52.870;13.660;2023-07-29T00:01:08;20.70;71.10
76470;DHT22;65305;52.870;13.660;2023-07-29T00:03:38;20.80;71.20
76470;DHT22;65305;52.870;13.660;2023-07-29T00:06:04;20.70;71.00
76470;DHT22;65305;52.870;13.660;2023-07-29T00:08:43;20.70;71.20
76470;DHT22;65305;52.870;13.660;2023-07-29T00:11:13;20.70;71.20
76470;DHT22;65305;52.870;13.660;2023-07-29T00:13:52;20.70;71.20
76470;DHT22;65305;52.870;13.660;2023-07-29T00:16:22;20.70;71.30
76470;DHT22;65305;52.870;13.660;2023-07-29T00:18:49;20.70;71.40
76470;DHT22;65305;52.870;13.660;2023-07-29T00:21:18;20.70;71.40
76470;DHT22;65305;52.870;13.660;2023-07-29T00:23:53;20.70;71.40
76470;DHT22;65305;52.870;13.660;2023-07-29T00:26:32;20.70;71.50
76470;DHT22;65305;52.870;13.660;2023-07-29T00:29:01;20.70;71.50
76470;DHT22;65305;52.870;13.660;2023-07-29T00:31:28;20.60;71.40
76470;DHT22;65305;52.870;13.660;2023-07-29T00:33:54;20.60;71.40
76470;DHT22;65305;52.870;13.660;2023-07-29T00:36:33;20.60;71.10
76470;DHT22;65305;52.870;13.660;2023-07-29T00:39:06;20.70;71.30
76470;DHT22;65305;52.870;13.660;2023-07-29T00:41:35;20.60;71.30
76470;DHT22;65305;52.870;13.660;2023-07-29T00:44:08;20.60;71.20
76470;DHT22;65305;52.870;13.660;2023-07-29T00:46:37;20.60;71.20
76470;DHT22;65305;52.870;13.660;2023-07-29T00:49:04;20.60;71.30
76470;DHT22;65305;52.870;13.660;2023-07-29T00:51:40;20.50;71.30
76470;DHT22;65305;52.870;13.660;2023-07-29T00:57:08;20.50;71.10
76470;DHT22;65305;52.870;13.660;2023-07-29T00:59:37;20.50;71.20
76470;DHT22;65305;52.870;13.660;2023-07-29T01:02:18;20.50;71.10
76470;DHT22;65305;52.870;13.660;2023-07-29T01:04:54;20.50;71.00
76470;DHT22;65305;52.870;13.660;2023-07-29T01:16:19;20.50;70.90
76470;DHT22;65305;52.870;13.660;2023-07-29T01:18:47;20.50;70.80
76470;DHT22;65305;52.870;13.660;2023-07-29T01:21:16;20.50;70.80
76470;DHT22;65305;52.870;13.660;2023-07-29T01:23:58;20.40;70.70
76470;DHT22;65305;52.870;13.660;2023-07-29T01:26:38;20.50;70.50
76470;DHT22;65305;52.870;13.660;2023-07-29T01:29:07;20.50;70.50
76470;DHT22;65305;52.870;13.660;2023-07-29T01:31:53;20.40;70.60
76470;DHT22;65305;52.870;13.660;2023-07-29T01:34:26;20.40;70.50
76470;DHT22;65305;52.870;13.660;2023-07-29T01:37:03;20.40;70.50
76470;DHT22;65305;52.870;13.660;2023-07-29T01:39:36;20.40;70.50
76470;DHT22;65305;52.870;13.660;2023-07-29T01:42:03;20.30;70.30
76470;DHT22;65305;52.870;13.660;2023-07-29T01:44:29;20.30;70.30
76470;DHT22;65305;52.870;13.660;2023-07-29T01:47:00;20.30;70.20
76470;DHT22;65305;52.870;13.660;2023-07-29T01:49:32;20.30;70.10
76470;DHT22;65305;52.870;13.660;2023-07-29T01:52:11;20.30;70.10
76470;DHT22;65305;52.870;13.660;2023-07-29T01:54:40;20.30;70.10
76470;DHT22;65305;52.870;13.660;2023-07-29T01:57:12;20.30;70.20
76470;DHT22;65305;52.870;13.660;2023-07-29T01:59:45;20.20;70.10
76470;DHT22;65305;52.870;13.660;2023-07-29T02:02:12;20.20;70.10
76470;DHT22;65305;52.870;13.660;2023-07-29T02:04:39;20.20;70.20
76470;DHT22;65305;52.870;13.660;2023-07-29T02:07:14;20.20;70.20
76470;DHT22;65305;52.870;13.660;2023-07-29T02:09:49;20.10;70.10
76470;DHT22;65305;52.870;13.660;2023-07-29T02:12:18;20.20;70.00
76470;DHT22;65305;52.870;13.660;2023-07-29T02:14:50;20.10;70.10
76470;DHT22;65305;52.870;13.660;2023-07-29T02:20:12;20.10;70.20
76470;DHT22;65305;52.870;13.660;2023-07-29T02:22:42;20.10;70.20
76470;DHT22;65305;52.870;13.660;2023-07-29T02:25:17;20.10;70.20
76470;DHT22;65305;52.870;13.660;2023-07-29T02:27:44;20.10;70.10
76470;DHT22;65305;52.870;13.660;2023-07-29T02:30:13;20.10;70.20
76470;DHT22;65305;52.870;13.660;2023-07-29T02:32:43;20.10;70.20
76470;DHT22;65305;52.870;13.660;2023-07-29T02:35:12;20.10;70.20
76470;DHT22;65305;52.870;13.660;2023-07-29T02:37:57;20.00;70.30
76470;DHT22;65305;52.870;13.660;2023-07-29T02:40:32;20.00;70.40
76470;DHT22;65305;52.870;13.660;2023-07-29T02:45:36;20.00;70.50
76470;DHT22;65305;52.870;13.660;2023-07-29T02:48:02;20.00;70.50
76470;DHT22;65305;52.870;13.660;2023-07-29T02:50:31;20.00;70.80
76470;DHT22;65305;52.870;13.660;2023-07-29T02:53:00;20.00;70.90
76470;DHT22;65305;52.870;13.660;2023-07-29T02:55:30;20.00;71.10
76470;DHT22;65305;52.870;13.660;2023-07-29T02:58:06;20.00;71.10
76470;DHT22;65305;52.870;13.660;2023-07-29T03:00:39;20.00;71.20
76470;DHT22;65305;52.870;13.660;2023-07-29T03:03:14;20.00;71.20
76470;DHT22;65305;52.870;13.660;2023-07-29T03:08:54;20.00;71.70
76470;DHT22;65305;52.870;13.660;2023-07-29T03:11:23;20.00;71.60
76470;DHT22;65305;52.870;13.660;2023-07-29T03:13:53;20.00;71.60
76470;DHT22;65305;52.870;13.660;2023-07-29T03:16:33;20.00;71.50
76470;DHT22;65305;52.870;13.660;2023-07-29T03:19:01;20.00;71.50
76470;DHT22;65305;52.870;13.660;2023-07-29T03:22:14;20.00;71.60
76470;DHT22;65305;52.870;13.660;2023-07-29T04:19:00;19.80;72.10
76470;DHT22;65305;52.870;13.660;2023-07-29T04:31:43;19.70;72.40
76470;DHT22;65305;52.870;13.660;2023-07-29T06:26:26;19.60;75.50
76470;DHT22;65305;52.870;13.660;2023-07-29T06:29:10;19.60;77.10
76470;DHT22;65305;52.870;13.660;2023-07-29T06:32:05;24.00;50.00
76470;DHT22;65305;52.870;13.660;2023-07-29T06:34:32;19.70;77.20
76470;DHT22;65305;52.870;13.660;2023-07-29T06:37:02;19.70;77.50
76470;DHT22;65305;52.870;13.660;2023-07-29T06:39:36;19.60;77.70
76470;DHT22;65305;52.870;13.660;2023-07-29T06:42:30;19.60;77.70
76470;DHT22;65305;52.870;13.660;2023-07-29T06:48:21;19.50;78.50
76470;DHT22;65305;52.870;13.660;2023-07-29T06:50:48;19.50;77.60
76470;DHT22;65305;52.870;13.660;2023-07-29T06:53:16;19.50;79.10
76470;DHT22;65305;52.870;13.660;2023-07-29T06:55:48;19.60;79.20
76470;DHT22;65305;52.870;13.660;2023-07-29T06:58:24;19.60;78.10
76470;DHT22;65305;52.870;13.660;2023-07-29T07:00:56;19.70;78.30
76470;DHT22;65305;52.870;13.660;2023-07-29T07:03:29;19.70;78.70
76470;DHT22;65305;52.870;13.660;2023-07-29T07:06:06;19.70;79.50
76470;DHT22;65305;52.870;13.660;2023-07-29T07:08:37;19.70;77.80
76470;DHT22;65305;52.870;13.660;2023-07-29T07:11:12;19.70;78.10
76470;DHT22;65305;52.870;13.660;2023-07-29T07:13:47;19.80;78.20
76470;DHT22;65305;52.870;13.660;2023-07-29T07:16:26;19.80;77.80
76470;DHT22;65305;52.870;13.660;2023-07-29T07:18:58;19.90;77.30
76470;DHT22;65305;52.870;13.660;2023-07-29T07:21:31;19.90;77.30
76470;DHT22;65305;52.870;13.660;2023-07-29T07:24:03;19.90;77.90
76470;DHT22;65305;52.870;13.660;2023-07-29T07:26:38;19.90;76.80
76470;DHT22;65305;52.870;13.660;2023-07-29T07:29:22;20.00;77.80
76470;DHT22;65305;52.870;13.660;2023-07-29T07:32:06;20.00;77.30
76470;DHT22;65305;52.870;13.660;2023-07-29T07:34:54;20.00;78.20
76470;DHT22;65305;52.870;13.660;2023-07-29T07:37:27;20.00;77.70
76470;DHT22;65305;52.870;13.660;2023-07-29T07:39:53;20.00;78.20
76470;DHT22;65305;52.870;13.660;2023-07-29T07:42:19;20.00;77.70
76470;DHT22;65305;52.870;13.660;2023-07-29T07:44:46;20.00;78.50
76470;DHT22;65305;52.870;13.660;2023-07-29T07:47:12;20.00;78.60
76470;DHT22;65305;52.870;13.660;2023-07-29T07:49:39;20.00;78.60
76470;DHT22;65305;52.870;13.660;2023-07-29T07:52:06;20.00;77.90
76470;DHT22;65305;52.870;13.660;2023-07-29T07:54:32;20.00;78.30
76470;DHT22;65305;52.870;13.660;2023-07-29T07:56:59;20.00;78.60
76470;DHT22;65305;52.870;13.660;2023-07-29T07:59:26;20.00;78.00
76470;DHT22;65305;52.870;13.660;2023-07-29T08:01:52;20.00;77.60
76470;DHT22;65305;52.870;13.660;2023-07-29T08:04:18;20.00;76.90
76470;DHT22;65305;52.870;13.660;2023-07-29T08:06:45;20.10;77.50
76470;DHT22;65305;52.870;13.660;2023-07-29T08:09:11;20.10;77.70
76470;DHT22;65305;52.870;13.660;2023-07-29T08:11:38;20.10;78.60
76470;DHT22;65305;52.870;13.660;2023-07-29T08:14:04;20.10;78.30
76470;DHT22;65305;52.870;13.660;2023-07-29T08:16:30;20.10;78.90
76470;DHT22;65305;52.870;13.660;2023-07-29T08:18:57;20.10;79.10
76470;DHT22;65305;52.870;13.660;2023-07-29T08:21:23;20.10;78.50
76470;DHT22;65305;52.870;13.660;2023-07-29T08:23:50;20.10;78.20
76470;DHT22;65305;52.870;13.660;2023-07-29T08:26:17;20.10;77.90
76470;DHT22;65305;52.870;13.660;2023-07-29T08:28:43;20.10;77.30
76470;DHT22;65305;52.870;13.660;2023-07-29T08:31:10;20.10;77.10
76470;DHT22;65305;52.870;13.660;2023-07-29T08:33:36;20.20;77.80
76470;DHT22;65305;52.870;13.660;2023-07-29T08:36:03;20.20;78.10
76470;DHT22;65305;52.870;13.660;2023-07-29T08:38:29;20.20;77.30
76470;DHT22;65305;52.870;13.660;2023-07-29T08:43:38;20.30;77.80
76470;DHT22;65305;52.870;13.660;2023-07-29T08:46:05;20.30;78.90
76470;DHT22;65305;52.870;13.660;2023-07-29T08:48:36;20.30;78.90
76470;DHT22;65305;52.870;13.660;2023-07-29T08:51:04;20.30;79.30
76470;DHT22;65305;52.870;13.660;2023-07-29T08:53:32;20.30;78.10
76470;DHT22;65305;52.870;13.660;2023-07-29T08:55:59;20.30;78.40
76470;DHT22;65305;52.870;13.660;2023-07-29T08:58:25;20.40;79.40
76470;DHT22;65305;52.870;13.660;2023-07-29T09:00:52;20.30;78.10
76470;DHT22;65305;52.870;13.660;2023-07-29T09:03:19;20.40;77.60
76470;DHT22;65305;52.870;13.660;2023-07-29T09:05:46;20.30;77.70
76470;DHT22;65305;52.870;13.660;2023-07-29T09:08:13;20.40;77.50
76470;DHT22;65305;52.870;13.660;2023-07-29T09:10:40;20.40;77.40
76470;DHT22;65305;52.870;13.660;2023-07-29T09:13:06;20.40;78.40
76470;DHT22;65305;52.870;13.660;2023-07-29T09:15:35;20.50;78.80
76470;DHT22;65305;52.870;13.660;2023-07-29T09:18:11;20.50;78.60
76470;DHT22;65305;52.870;13.660;2023-07-29T09:20:38;20.50;79.10
76470;DHT22;65305;52.870;13.660;2023-07-29T09:23:07;20.50;78.50
76470;DHT22;65305;52.870;13.660;2023-07-29T09:25:36;20.50;77.90
76470;DHT22;65305;52.870;13.660;2023-07-29T09:28:07;20.50;77.90
76470;DHT22;65305;52.870;13.660;2023-07-29T09:30:35;20.50;79.20
76470;DHT22;65305;52.870;13.660;2023-07-29T09:33:02;20.50;79.00
76470;DHT22;65305;52.870;13.660;2023-07-29T09:35:30;20.60;79.10
76470;DHT22;65305;52.870;13.660;2023-07-29T09:37:57;20.70;78.90
76470;DHT22;65305;52.870;13.660;2023-07-29T09:40:24;20.70;79.10
76470;DHT22;65305;52.870;13.660;2023-07-29T09:42:51;20.80;79.40
76470;DHT22;65305;52.870;13.660;2023-07-29T09:47:48;20.80;78.40
76470;DHT22;65305;52.870;13.660;2023-07-29T09:50:15;20.90;79.00
76470;DHT22;65305;52.870;13.660;2023-07-29T09:52:42;20.90;79.10
76470;DHT22;65305;52.870;13.660;2023-07-29T09:55:13;20.80;78.40
76470;DHT22;65305;52.870;13.660;2023-07-29T09:57:43;20.80;78.80
76470;DHT22;65305;52.870;13.660;2023-07-29T10:00:13;20.90;79.50
76470;DHT22;65305;52.870;13.660;2023-07-29T10:02:40;20.90;78.50
76470;DHT22;65305;52.870;13.660;2023-07-29T10:05:08;20.90;79.20
76470;DHT22;65305;52.870;13.660;2023-07-29T10:07:38;20.90;79.20
76470;DHT22;65305;52.870;13.660;2023-07-29T10:10:05;20.90;78.40
76470;DHT22;65305;52.870;13.660;2023-07-29T10:12:33;20.90;78.50
76470;DHT22;65305;52.870;13.660;2023-07-29T10:15:03;20.90;79.10
76470;DHT22;65305;52.870;13.660;2023-07-29T10:17:30;20.90;79.10
76470;DHT22;65305;52.870;13.660;2023-07-29T10:20:00;21.00;79.90
76470;DHT22;65305;52.870;13.660;2023-07-29T10:22:28;21.00;79.30
76470;DHT22;65305;52.870;13.660;2023-07-29T10:24:59;21.00;79.10
76470;DHT22;65305;52.870;13.660;2023-07-29T10:27:31;21.00;80.00
76470;DHT22;65305;52.870;13.660;2023-07-29T10:30:01;21.10;79.20
76470;DHT22;65305;52.870;13.660;2023-07-29T10:32:30;21.10;80.00
76470;DHT22;65305;52.870;13.660;2023-07-29T10:34:59;21.10;78.80
76470;DHT22;65305;52.870;13.660;2023-07-29T10:37:25;21.10;78.80
76470;DHT22;65305;52.870;13.660;2023-07-29T10:39:54;21.10;79.00
76470;DHT22;65305;52.870;13.660;2023-07-29T10:42:20;21.10;79.00
76470;DHT22;65305;52.870;13.660;2023-07-29T10:44:51;21.10;79.10
76470;DHT22;65305;52.870;13.660;2023-07-29T10:47:22;21.20;78.60
76470;DHT22;65305;52.870;13.660;2023-07-29T10:50:16;21.20;78.20
76470;DHT22;65305;52.870;13.660;2023-07-29T10:52:39;21.30;78.70
76470;DHT22;65305;52.870;13.660;2023-07-29T10:58:13;21.20;78.20
76470;DHT22;65305;52.870;13.660;2023-07-29T11:00:46;21.20;78.30
76470;DHT22;65305;52.870;13.660;2023-07-29T11:03:14;21.10;77.20
76470;DHT22;65305;52.870;13.660;2023-07-29T11:05:50;21.10;77.80
76470;DHT22;65305;52.870;13.660;2023-07-29T11:08:17;21.20;77.70
76470;DHT22;65305;52.870;13.660;2023-07-29T11:10:52;21.10;77.50
76470;DHT22;65305;52.870;13.660;2023-07-29T11:13:25;21.10;78.40
76470;DHT22;65305;52.870;13.660;2023-07-29T11:15:53;21.20;78.40
76470;DHT22;65305;52.870;13.660;2023-07-29T11:18:21;21.20;78.90
76470;DHT22;65305;52.870;13.660;2023-07-29T11:20:47;21.20;79.10
76470;DHT22;65305;52.870;13.660;2023-07-29T11:23:14;21.10;77.60
76470;DHT22;65305;52.870;13.660;2023-07-29T11:25:42;21.10;77.10
76470;DHT22;65305;52.870;13.660;2023-07-29T11:28:09;21.10;78.10
76470;DHT22;65305;52.870;13.660;2023-07-29T11:30:39;21.10;77.40
76470;DHT22;65305;52.870;13.660;2023-07-29T11:33:06;21.10;78.40
76470;DHT22;65305;52.870;13.660;2023-07-29T11:35:33;21.10;78.60
76470;DHT22;65305;52.870;13.660;2023-07-29T11:38:01;21.10;79.20
76470;DHT22;65305;52.870;13.660;2023-07-29T11:40:28;21.10;79.70
76470;DHT22;65305;52.870;13.660;2023-07-29T11:42:54;21.10;79.20
76470;DHT22;65305;52.870;13.660;2023-07-29T11:45:21;21.10;79.70
76470;DHT22;65305;52.870;13.660;2023-07-29T11:47:56;21.10;79.40
76470;DHT22;65305;52.870;13.660;2023-07-29T11:50:37;21.10;79.30
76470;DHT22;65305;52.870;13.660;2023-07-29T11:53:04;21.20;79.20
76470;DHT22;65305;52.870;13.660;2023-07-29T11:55:32;21.10;79.00
76470;DHT22;65305;52.870;13.660;2023-07-29T11:58:05;21.10;79.50
76470;DHT22;65305;52.870;13.660;2023-07-29T12:00:33;21.10;79.80
76470;DHT22;65305;52.870;13.660;2023-07-29T12:03:00;21.10;79.60
76470;DHT22;65305;52.870;13.660;2023-07-29T12:05:28;21.10;80.30
76470;DHT22;65305;52.870;13.660;2023-07-29T12:07:55;21.10;79.70
76470;DHT22;65305;52.870;13.660;2023-07-29T12:10:22;21.10;79.60
76470;DHT22;65305;52.870;13.660;2023-07-29T12:12:49;21.10;80.40
76470;DHT22;65305;52.870;13.660;2023-07-29T12:15:28;21.10;80.00
76470;DHT22;65305;52.870;13.660;2023-07-29T12:17:56;21.10;79.30
76470;DHT22;65305;52.870;13.660;2023-07-29T12:20:23;21.10;79.20
76470;DHT22;65305;52.870;13.660;2023-07-29T12:22:56;21.10;78.90
76470;DHT22;65305;52.870;13.660;2023-07-29T12:25:23;21.10;78.90
76470;DHT22;65305;52.870;13.660;2023-07-29T12:27:50;21.10;78.20
76470;DHT22;65305;52.870;13.660;2023-07-29T12:30:19;21.10;76.60
76470;DHT22;65305;52.870;13.660;2023-07-29T12:32:46;21.10;77.00
76470;DHT22;65305;52.870;13.660;2023-07-29T12:35:13;21.20;77.00
76470;DHT22;65305;52.870;13.660;2023-07-29T12:37:40;21.30;76.60
76470;DHT22;65305;52.870;13.660;2023-07-29T12:40:31;21.30;78.10
76470;DHT22;65305;52.870;13.660;2023-07-29T12:42:57;21.30;77.00
76470;DHT22;65305;52.870;13.660;2023-07-29T12:45:24;21.30;76.50
76470;DHT22;65305;52.870;13.660;2023-07-29T12:47:53;21.30;76.50
76470;DHT22;65305;52.870;13.660;2023-07-29T12:50:21;21.40;76.60
76470;DHT22;65305;52.870;13.660;2023-07-29T12:53:02;21.40;76.60
76470;DHT22;65305;52.870;13.660;2023-07-29T12:55:28;21.40;77.90
76470;DHT22;65305;52.870;13.660;2023-07-29T12:57:55;21.40;78.30
76470;DHT22;65305;52.870;13.660;2023-07-29T13:00:21;21.40;77.50
76470;DHT22;65305;52.870;13.660;2023-07-29T13:02:52;21.40;75.90
76470;DHT22;65305;52.870;13.660;2023-07-29T13:05:37;21.40;78.40
76470;DHT22;65305;52.870;13.660;2023-07-29T13:08:09;21.30;79.80
76470;DHT22;65305;52.870;13.660;2023-07-29T13:10:36;21.30;80.20
76470;DHT22;65305;52.870;13.660;2023-07-29T13:13:03;21.30;79.90
76470;DHT22;65305;52.870;13.660;2023-07-29T13:15:29;21.30;77.90
76470;DHT22;65305;52.870;13.660;2023-07-29T13:17:56;21.40;76.60
76470;DHT22;65305;52.870;13.660;2023-07-29T13:20:26;21.40;76.00
76470;DHT22;65305;52.870;13.660;2023-07-29T13:22:54;21.50;76.70
76470;DHT22;65305;52.870;13.660;2023-07-29T13:25:20;21.50;76.50
76470;DHT22;65305;52.870;13.660;2023-07-29T13:27:47;21.50;76.20
76470;DHT22;65305;52.870;13.660;2023-07-29T13:30:14;21.60;76.20
76470;DHT22;65305;52.870;13.660;2023-07-29T13:32:40;21.60;76.30
76470;DHT22;65305;52.870;13.660;2023-07-29T13:35:07;21.70;75.80
76470;DHT22;65305;52.870;13.660;2023-07-29T13:37:33;21.70;75.90
76470;DHT22;65305;52.870;13.660;2023-07-29T13:39:59;21.70;76.10
76470;DHT22;65305;52.870;13.660;2023-07-29T13:42:25;21.70;76.00
76470;DHT22;65305;52.870;13.660;2023-07-29T13:44:52;21.70;77.50
76470;DHT22;65305;52.870;13.660;2023-07-29T13:47:19;21.70;77.50
76470;DHT22;65305;52.870;13.660;2023-07-29T13:49:45;21.70;78.70
76470;DHT22;65305;52.870;13.660;2023-07-29T13:52:12;21.70;77.20
76470;DHT22;65305;52.870;13.660;2023-07-29T13:54:38;21.80;77.20
76470;DHT22;65305;52.870;13.660;2023-07-29T13:57:05;21.90;77.10
76470;DHT22;65305;52.870;13.660;2023-07-29T13:59:33;21.90;76.50
76470;DHT22;65305;52.870;13.660;2023-07-29T14:01:59;21.90;77.20
76470;DHT22;65305;52.870;13.660;2023-07-29T14:04:26;21.90;76.70
76470;DHT22;65305;52.870;13.660;2023-07-29T14:06:52;22.00;76.40
76470;DHT22;65305;52.870;13.660;2023-07-29T14:09:19;22.00;76.30
76470;DHT22;65305;52.870;13.660;2023-07-29T14:11:46;22.00;76.00
76470;DHT22;65305;52.870;13.660;2023-07-29T14:14:12;22.10;76.50
76470;DHT22;65305;52.870;13.660;2023-07-29T14:16:39;22.10;76.40
76470;DHT22;65305;52.870;13.660;2023-07-29T14:19:05;22.10;76.70
76470;DHT22;65305;52.870;13.660;2023-07-29T14:21:32;22.10;76.30
76470;DHT22;65305;52.870;13.660;2023-07-29T14:23:58;22.20;76.40
76470;DHT22;65305;52.870;13.660;2023-07-29T14:26:25;22.20;76.10
76470;DHT22;65305;52.870;13.660;2023-07-29T14:28:51;22.20;77.00
76470;DHT22;65305;52.870;13.660;2023-07-29T14:31:18;22.20;76.30
76470;DHT22;65305;52.870;13.660;2023-07-29T14:33:44;22.20;76.50
76470;DHT22;65305;52.870;13.660;2023-07-29T14:36:11;22.30;76.80
76470;DHT22;65305;52.870;13.660;2023-07-29T14:38:38;22.30;76.20
76470;DHT22;65305;52.870;13.660;2023-07-29T14:41:04;22.30;76.20
76470;DHT22;65305;52.870;13.660;2023-07-29T14:43:31;22.30;75.90
76470;DHT22;65305;52.870;13.660;2023-07-29T14:45:57;22.30;76.10
76470;DHT22;65305;52.870;13.660;2023-07-29T14:48:24;22.40;75.80
76470;DHT22;65305;52.870;13.660;2023-07-29T14:50:51;22.40;75.70
76470;DHT22;65305;52.870;13.660;2023-07-29T14:53:18;22.40;75.50
76470;DHT22;65305;52.870;13.660;2023-07-29T14:55:44;22.40;75.80
76470;DHT22;65305;52.870;13.660;2023-07-29T14:58:11;22.50;76.50
76470;DHT22;65305;52.870;13.660;2023-07-29T15:00:37;22.50;75.80
76470;DHT22;65305;52.870;13.660;2023-07-29T15:03:04;22.50;75.70
76470;DHT22;65305;52.870;13.660;2023-07-29T15:05:33;22.50;75.60
76470;DHT22;65305;52.870;13.660;2023-07-29T15:07:59;22.50;75.80
76470;DHT22;65305;52.870;13.660;2023-07-29T15:10:26;22.50;75.50
76470;DHT22;65305;52.870;13.660;2023-07-29T15:12:53;22.50;75.70
76470;DHT22;65305;52.870;13.660;2023-07-29T15:15:19;22.50;75.60
76470;DHT22;65305;52.870;13.660;2023-07-29T15:17:46;22.50;75.40
76470;DHT22;65305;52.870;13.660;2023-07-29T15:20:12;22.50;75.20
76470;DHT22;65305;52.870;13.660;2023-07-29T15:22:39;22.50;75.20
76470;DHT22;65305;52.870;13.660;2023-07-29T15:25:07;22.60;75.20
76470;DHT22;65305;52.870;13.660;2023-07-29T15:27:35;22.60;74.70
76470;DHT22;65305;52.870;13.660;2023-07-29T15:30:02;22.60;74.70
76470;DHT22;65305;52.870;13.660;2023-07-29T15:32:29;22.60;74.80
76470;DHT22;65305;52.870;13.660;2023-07-29T15:34:55;22.60;75.10
76470;DHT22;65305;52.870;13.660;2023-07-29T15:37:22;22.60;74.90
76470;DHT22;65305;52.870;13.660;2023-07-29T15:39:52;22.60;75.50
76470;DHT22;65305;52.870;13.660;2023-07-29T15:42:18;22.60;75.40
76470;DHT22;65305;52.870;13.660;2023-07-29T15:44:45;22.60;75.10
76470;DHT22;65305;52.870;13.660;2023-07-29T15:47:11;22.60;74.80
76470;DHT22;65305;52.870;13.660;2023-07-29T15:49:42;22.60;74.70
76470;DHT22;65305;52.870;13.660;2023-07-29T15:52:08;22.60;74.50
76470;DHT22;65305;52.870;13.660;2023-07-29T15:54:36;22.60;74.50
76470;DHT22;65305;52.870;13.660;2023-07-29T15:57:03;22.60;74.40
76470;DHT22;65305;52.870;13.660;2023-07-29T15:59:29;22.60;74.40
76470;DHT22;65305;52.870;13.660;2023-07-29T16:01:56;22.60;74.50
76470;DHT22;65305;52.870;13.660;2023-07-29T16:04:23;22.60;74.40
76470;DHT22;65305;52.870;13.660;2023-07-29T16:06:49;22.60;74.40
76470;DHT22;65305;52.870;13.660;2023-07-29T16:09:16;22.60;74.40
76470;DHT22;65305;52.870;13.660;2023-07-29T16:11:47;22.60;74.40
76470;DHT22;65305;52.870;13.660;2023-07-29T16:14:14;22.60;74.20
76470;DHT22;65305;52.870;13.660;2023-07-29T16:16:40;22.60;74.40
76470;DHT22;65305;52.870;13.660;2023-07-29T16:19:07;22.60;74.30
76470;DHT22;65305;52.870;13.660;2023-07-29T16:21:35;22.60;74.30
76470;DHT22;65305;52.870;13.660;2023-07-29T16:24:02;22.60;74.30
76470;DHT22;65305;52.870;13.660;2023-07-29T16:26:28;22.60;74.30
76470;DHT22;65305;52.870;13.660;2023-07-29T16:28:55;22.60;74.20
76470;DHT22;65305;52.870;13.660;2023-07-29T16:31:21;22.60;74.20
76470;DHT22;65305;52.870;13.660;2023-07-29T16:33:48;22.60;74.30
76470;DHT22;65305;52.870;13.660;2023-07-29T16:36:15;22.60;75.30
76470;DHT22;65305;52.870;13.660;2023-07-29T16:38:42;22.60;74.90
76470;DHT22;65305;52.870;13.660;2023-07-29T16:41:09;22.60;74.90
76470;DHT22;65305;52.870;13.660;2023-07-29T16:43:35;22.60;74.70
76470;DHT22;65305;52.870;13.660;2023-07-29T16:46:01;22.60;75.70
76470;DHT22;65305;52.870;13.660;2023-07-29T16:48:28;22.50;75.60
76470;DHT22;65305;52.870;13.660;2023-07-29T16:50:54;22.50;75.70
76470;DHT22;65305;52.870;13.660;2023-07-29T16:53:21;22.50;75.10
76470;DHT22;65305;52.870;13.660;2023-07-29T16:55:47;22.50;75.80
76470;DHT22;65305;52.870;13.660;2023-07-29T16:58:14;22.50;75.60
76470;DHT22;65305;52.870;13.660;2023-07-29T17:00:41;22.50;76.20
76470;DHT22;65305;52.870;13.660;2023-07-29T17:03:07;22.50;75.90
76470;DHT22;65305;52.870;13.660;2023-07-29T17:05:33;22.50;76.20
76470;DHT22;65305;52.870;13.660;2023-07-29T17:08:00;22.50;76.20
76470;DHT22;65305;52.870;13.660;2023-07-29T17:10:27;22.50;76.50
76470;DHT22;65305;52.870;13.660;2023-07-29T17:12:53;22.50;76.60
76470;DHT22;65305;52.870;13.660;2023-07-29T17:15:20;22.50;77.10
76470;DHT22;65305;52.870;13.660;2023-07-29T17:17:46;22.40;77.10
76470;DHT22;65305;52.870;13.660;2023-07-29T17:20:13;22.40;77.10
76470;DHT22;65305;52.870;13.660;2023-07-29T17:22:40;22.30;77.40
76470;DHT22;65305;52.870;13.660;2023-07-29T17:25:07;22.30;77.50
76470;DHT22;65305;52.870;13.660;2023-07-29T17:27:34;22.30;77.20
76470;DHT22;65305;52.870;13.660;2023-07-29T17:30:00;22.30;77.20
76470;DHT22;65305;52.870;13.660;2023-07-29T17:32:27;22.30;77.30
76470;DHT22;65305;52.870;13.660;2023-07-29T17:34:53;22.30;77.20
76470;DHT22;65305;52.870;13.660;2023-07-29T17:37:20;22.40;76.90
76470;DHT22;65305;52.870;13.660;2023-07-29T17:39:52;22.40;76.50
76470;DHT22;65305;52.870;13.660;2023-07-29T17:42:19;22.50;76.10
76470;DHT22;65305;52.870;13.660;2023-07-29T17:44:46;22.40;76.40
76470;DHT22;65305;52.870;13.660;2023-07-29T17:47:13;22.30;76.70
76470;DHT22;65305;52.870;13.660;2023-07-29T17:49:41;22.30;76.90
76470;DHT22;65305;52.870;13.660;2023-07-29T17:52:07;22.30;76.40
76470;DHT22;65305;52.870;13.660;2023-07-29T17:54:35;22.30;76.40
76470;DHT22;65305;52.870;13.660;2023-07-29T17:57:03;22.20;75.80
76470;DHT22;65305;52.870;13.660;2023-07-29T17:59:30;22.20;75.90
76470;DHT22;65305;52.870;13.660;2023-07-29T18:01:58;22.20;76.20
76470;DHT22;65305;52.870;13.660;2023-07-29T18:04:24;22.20;76.30
76470;DHT22;65305;52.870;13.660;2023-07-29T18:06:50;22.20;76.20
76470;DHT22;65305;52.870;13.660;2023-07-29T18:09:17;22.20;76.50
76470;DHT22;65305;52.870;13.660;2023-07-29T18:11:43;22.20;76.30
76470;DHT22;65305;52.870;13.660;2023-07-29T18:14:10;22.20;76.50
76470;DHT22;65305;52.870;13.660;2023-07-29T18:16:36;22.20;76.40
76470;DHT22;65305;52.870;13.660;2023-07-29T18:19:07;22.20;76.10
76470;DHT22;65305;52.870;13.660;2023-07-29T18:21:34;22.20;76.00
76470;DHT22;65305;52.870;13.660;2023-07-29T18:24:00;22.20;76.00
76470;DHT22;65305;52.870;13.660;2023-07-29T18:26:27;22.10;75.90
76470;DHT22;65305;52.870;13.660;2023-07-29T18:28:54;22.10;75.90
76470;DHT22;65305;52.870;13.660;2023-07-29T18:31:23;22.00;76.10
76470;DHT22;65305;52.870;13.660;2023-07-29T18:33:50;21.90;75.80
76470;DHT22;65305;52.870;13.660;2023-07-29T18:36:16;21.90;75.60
76470;DHT22;65305;52.870;13.660;2023-07-29T18:38:43;21.90;75.70
76470;DHT22;65305;52.870;13.660;2023-07-29T18:41:09;21.90;75.70
76470;DHT22;65305;52.870;13.660;2023-07-29T18:43:36;22.00;75.40
76470;DHT22;65305;52.870;13.660;2023-07-29T18:46:03;22.00;75.20
76470;DHT22;65305;52.870;13.660;2023-07-29T18:48:29;22.10;75.00
76470;DHT22;65305;52.870;13.660;2023-07-29T18:50:56;22.10;75.20
76470;DHT22;65305;52.870;13.660;2023-07-29T18:53:22;22.20;75.10
76470;DHT22;65305;52.870;13.660;2023-07-29T18:55:49;22.20;74.90